Time;durP1;ratioP1;P1;durP2;ratioP2;P2;SDS_P1;SDS_P2;PMS_P1;PMS_P2;Temp;Humidity;BMP_temperature;BMP_pressure;BME280_temperature;BME280_humidity;BME280_pressure;Samples;Min_cycle;Max_cycle;Signal;HPM_P1;HPM_P2
2022/11/28 00:00:40;;;;;;;5.03;3.50;;;;;4.90;93760.00;;;;7397800;19;20136;-76
2022/11/28 00:03:08;;;;;;;3.97;2.97;;;;;4.80;93764.00;;;;7397285;19;20153;-76
2022/11/28 00:05:42;;;;;;;5.20;2.90;;;;;4.70;93756.00;;;;7396638;19;20135;-76
2022/11/28 00:08:15;;;;;;;6.00;3.47;;;;;4.50;93752.00;;;;7396779;19;20176;-77
2022/11/28 00:10:50;;;;;;;8.20;2.93;;;;;4.30;93758.00;;;;7397995;19;20210;-77
2022/11/28 00:13:19;;;;;;;2.87;2.40;;;;;4.30;93752.00;;;;7395746;19;20181;-76
2022/11/28 00:15:58;;;;;;;4.47;2.90;;;;;4.20;93751.00;;;;7396484;19;20149;-76
2022/11/28 00:18:45;;;;;;;3.57;2.47;;;;;4.70;93749.00;;;;7395622;19;20164;-77
2022/11/28 00:21:21;;;;;;;2.93;2.20;;;;;4.80;93745.00;;;;7395759;19;20497;-76
2022/11/28 00:23:55;;;;;;;2.63;2.00;;;;;5.30;93734.00;;;;7396784;19;20610;-76
2022/11/28 00:26:23;;;;;;;2.10;1.77;;;;;5.40;93728.00;;;;7397298;19;20540;-76
2022/11/28 00:28:51;;;;;;;3.57;2.00;;;;;5.40;93729.00;;;;7396070;19;20169;-76
2022/11/28 00:31:29;;;;;;;2.23;1.67;;;;;5.80;93724.00;;;;7398378;19;20188;-76
2022/11/28 00:33:57;;;;;;;2.53;1.43;;;;;5.70;93723.00;;;;7396193;19;20196;-75
2022/11/28 00:36:25;;;;;;;1.43;1.13;;;;;6.00;93722.00;;;;7396881;19;20153;-75
2022/11/28 00:38:59;;;;;;;2.37;1.63;;;;;5.60;93715.00;;;;7396541;19;20207;-76
2022/11/28 00:41:29;;;;;;;3.23;1.30;;;;;5.40;93715.00;;;;7401393;19;20156;-77
2022/11/28 00:43:57;;;;;;;2.80;1.33;;;;;5.50;93714.00;;;;7404827;19;20753;-76
2022/11/28 00:46:31;;;;;;;1.60;1.10;;;;;5.60;93715.00;;;;7405368;19;20185;-76
2022/11/28 00:48:58;;;;;;;1.63;1.10;;;;;5.90;93712.00;;;;7403629;19;20512;-76
2022/11/28 00:51:29;;;;;;;1.43;0.93;;;;;6.00;93712.00;;;;7394613;19;20232;-77
2022/11/28 00:54:04;;;;;;;1.20;0.90;;;;;6.10;93700.00;;;;7399982;19;20598;-77
2022/11/28 00:56:41;;;;;;;1.10;0.90;;;;;6.10;93693.00;;;;7403628;19;20216;-76
2022/11/28 00:59:15;;;;;;;0.90;0.80;;;;;6.10;93691.00;;;;7403916;19;20670;-76
2022/11/28 01:01:43;;;;;;;1.20;1.07;;;;;6.10;93684.00;;;;7403284;19;20470;-76
2022/11/28 01:04:13;;;;;;;1.30;0.80;;;;;5.90;93689.00;;;;7403452;19;20129;-76
2022/11/28 01:06:48;;;;;;;2.30;1.17;;;;;5.80;93693.00;;;;7403000;19;20136;-76
2022/11/28 01:09:18;;;;;;;1.00;0.90;;;;;5.30;93697.00;;;;7403670;19;20149;-76
2022/11/28 01:11:48;;;;;;;1.27;0.70;;;;;5.00;93698.00;;;;7402795;19;20600;-76
2022/11/28 01:14:23;;;;;;;0.97;0.60;;;;;4.80;93699.00;;;;7401140;19;20140;-77
2022/11/28 01:16:53;;;;;;;0.97;0.70;;;;;4.70;93704.00;;;;7402882;19;20152;-76
2022/11/28 01:19:20;;;;;;;2.27;0.60;;;;;4.80;93713.00;;;;7401277;19;20172;-77
2022/11/28 01:22:05;;;;;;;0.97;0.70;;;;;4.90;93704.00;;;;7401339;19;20209;-77
2022/11/28 01:24:33;;;;;;;0.83;0.63;;;;;5.00;93704.00;;;;7402874;19;20185;-76
2022/11/28 01:27:10;;;;;;;2.27;0.80;;;;;5.50;93702.00;;;;7402073;19;20156;-77
2022/11/28 01:29:38;;;;;;;1.60;0.77;;;;;5.60;93693.00;;;;7402061;19;20630;-77
2022/11/28 01:32:11;;;;;;;1.23;0.60;;;;;5.60;93686.00;;;;7402817;19;20132;-77
2022/11/28 01:34:45;;;;;;;0.97;0.80;;;;;5.60;93700.00;;;;7402648;19;20156;-77
2022/11/28 01:37:13;;;;;;;0.57;0.57;;;;;5.40;93698.00;;;;7402475;19;20656;-77
2022/11/28 01:39:40;;;;;;;1.50;0.77;;;;;5.40;93705.00;;;;7403568;19;20136;-76
2022/11/28 01:42:18;;;;;;;0.60;0.60;;;;;5.50;93696.00;;;;7397784;19;20162;-77
2022/11/28 01:44:48;;;;;;;0.93;0.63;;;;;5.60;93685.00;;;;7403548;19;20576;-76
2022/11/28 01:47:29;;;;;;;0.80;0.80;;;;;5.60;93676.00;;;;7401643;19;20185;-76
2022/11/28 01:49:56;;;;;;;0.40;0.40;;;;;5.60;93673.00;;;;7401548;19;20634;-77
2022/11/28 01:52:31;;;;;;;1.03;0.80;;;;;5.60;93665.00;;;;7399418;19;20225;-77
2022/11/28 01:55:02;;;;;;;1.17;0.60;;;;;5.80;93648.00;;;;7401357;19;20141;-76
2022/11/28 01:57:29;;;;;;;0.60;0.60;;;;;5.80;93653.00;;;;7401194;19;20156;-76
2022/11/28 02:00:10;;;;;;;0.97;0.50;;;;;5.80;93654.00;;;;7400954;19;20188;-77
2022/11/28 02:02:42;;;;;;;1.17;0.80;;;;;6.00;93651.00;;;;7402041;19;20149;-76
2022/11/28 02:05:20;;;;;;;1.17;0.53;;;;;6.00;93657.00;;;;7401195;19;20188;-76
2022/11/28 02:07:49;;;;;;;0.40;0.40;;;;;6.00;93650.00;;;;7400874;19;20770;-77
2022/11/28 02:10:23;;;;;;;2.17;0.70;;;;;6.40;93640.00;;;;7400579;19;20204;-77
2022/11/28 02:13:15;;;;;;;1.57;0.70;;;;;6.10;93649.00;;;;7400507;19;20208;-76
2022/11/28 02:16:26;;;;;;;3.50;0.70;;;;;5.90;93652.00;;;;7401003;19;20173;-76
2022/11/28 02:19:29;;;;;;;1.27;0.90;;;;;5.50;93652.00;;;;7401036;19;20231;-76
2022/11/28 02:22:48;;;;;;;0.77;0.70;;;;;5.60;93643.00;;;;7400954;19;20145;-78
2022/11/28 02:26:07;;;;;;;0.83;0.50;;;;;5.90;93630.00;;;;7398519;19;20235;-75
2022/11/28 02:28:40;;;;;;;1.37;0.50;;;;;5.90;93636.00;;;;7399941;19;20495;-76
2022/11/28 02:31:47;;;;;;;0.50;0.50;;;;;5.80;93629.00;;;;7400891;19;20188;-77
2022/11/28 02:34:29;;;;;;;0.53;0.50;;;;;5.70;93632.00;;;;7400473;19;20145;-76
2022/11/28 02:37:40;;;;;;;6.30;0.60;;;;;5.80;93627.00;;;;7401849;19;20125;-77
2022/11/28 02:40:28;;;;;;;0.80;0.50;;;;;5.80;93620.00;;;;7399336;19;20511;-76
2022/11/28 02:43:13;;;;;;;0.83;0.63;;;;;5.60;93628.00;;;;7398977;19;20636;-76
2022/11/28 02:46:09;;;;;;;1.17;0.70;;;;;5.50;93631.00;;;;7399749;19;20591;-77
2022/11/28 02:48:57;;;;;;;1.23;0.60;;;;;5.40;93620.00;;;;7399705;19;20607;-77
2022/11/28 02:52:07;;;;;;;0.50;0.50;;;;;5.40;93625.00;;;;7396664;19;20124;-77
2022/11/28 02:54:42;;;;;;;0.73;0.50;;;;;5.40;93624.00;;;;7400542;19;20129;-77
2022/11/28 02:57:10;;;;;;;2.27;0.70;;;;;5.40;93618.00;;;;7401297;19;20128;-76
2022/11/28 02:59:38;;;;;;;0.60;0.60;;;;;5.40;93611.00;;;;7398330;19;20572;-76
2022/11/28 03:02:27;;;;;;;1.20;0.37;;;;;5.50;93612.00;;;;7396251;19;20618;-76
2022/11/28 03:05:26;;;;;;;0.70;0.50;;;;;5.50;93609.00;;;;7399387;19;20132;-76
2022/11/28 03:08:30;;;;;;;2.00;0.60;;;;;5.60;93605.00;;;;7400719;19;20152;-76
2022/11/28 03:11:21;;;;;;;0.47;0.47;;;;;5.70;93597.00;;;;7398770;19;20503;-76
2022/11/28 03:14:45;;;;;;;1.00;0.80;;;;;5.50;93606.00;;;;7398302;19;20168;-76
2022/11/28 03:17:21;;;;;;;0.73;0.43;;;;;5.30;93601.00;;;;7398796;19;20145;-76
2022/11/28 03:20:15;;;;;;;0.60;0.50;;;;;5.10;93601.00;;;;7397707;19;20169;-78
2022/11/28 03:23:13;;;;;;;0.47;0.43;;;;;5.00;93604.00;;;;7398901;19;20188;-77
2022/11/28 03:26:19;;;;;;;1.57;0.67;;;;;5.00;93596.00;;;;7397813;19;20156;-77
2022/11/28 03:29:01;;;;;;;0.40;0.40;;;;;5.30;93598.00;;;;7396751;19;20156;-77
2022/11/28 03:31:38;;;;;;;0.50;0.50;;;;;5.40;93602.00;;;;7397439;19;20156;-77
2022/11/28 03:34:10;;;;;;;1.47;0.70;;;;;5.30;93605.00;;;;7398436;19;20133;-77
2022/11/28 03:36:52;;;;;;;0.73;0.50;;;;;5.50;93603.00;;;;7397565;19;20160;-78
2022/11/28 03:39:24;;;;;;;0.97;0.60;;;;;5.80;93597.00;;;;7398943;19;20195;-76
2022/11/28 03:42:06;;;;;;;0.60;0.50;;;;;5.70;93597.00;;;;7397077;19;20227;-77
2022/11/28 03:44:56;;;;;;;0.73;0.60;;;;;5.80;93596.00;;;;7398191;19;20207;-77
2022/11/28 03:47:37;;;;;;;0.60;0.60;;;;;6.00;93586.00;;;;7397563;19;20612;-77
2022/11/28 03:50:22;;;;;;;1.90;0.80;;;;;6.60;93588.00;;;;7396222;19;20460;-77
2022/11/28 03:53:01;;;;;;;0.97;0.80;;;;;7.10;93575.00;;;;7397514;19;20645;-78
2022/11/28 03:55:41;;;;;;;0.57;0.50;;;;;7.10;93587.00;;;;7397535;19;20228;-77
2022/11/28 03:58:26;;;;;;;0.80;0.70;;;;;7.40;93583.00;;;;7397395;19;20158;-78
2022/11/28 04:01:26;;;;;;;2.17;0.70;;;;;7.40;93578.00;;;;7396417;19;20148;-78
2022/11/28 04:04:07;;;;;;;2.30;0.80;;;;;7.20;93573.00;;;;7394731;19;20615;-76
2022/11/28 04:06:53;;;;;;;0.93;0.70;;;;;7.10;93581.00;;;;7396933;19;20158;-77
2022/11/28 04:09:48;;;;;;;1.20;0.83;;;;;7.30;93578.00;;;;7397105;19;20678;-76
2022/11/28 04:12:22;;;;;;;0.60;0.60;;;;;7.20;93579.00;;;;7396944;19;20177;-76
2022/11/28 04:15:08;;;;;;;0.60;0.60;;;;;7.50;93577.00;;;;7395468;19;20623;-76
2022/11/28 04:17:46;;;;;;;3.00;1.00;;;;;7.60;93580.00;;;;7397111;19;20132;-76
2022/11/28 04:20:37;;;;;;;1.23;0.93;;;;;7.70;93572.00;;;;7396163;19;20175;-76
2022/11/28 04:23:13;;;;;;;2.03;1.00;;;;;7.70;93577.00;;;;7395647;19;20160;-78
2022/11/28 04:25:54;;;;;;;1.27;0.80;;;;;7.50;93572.00;;;;7396359;19;20133;-77
2022/11/28 04:28:28;;;;;;;0.90;0.90;;;;;7.70;93579.00;;;;7396777;19;20453;-78
2022/11/28 04:31:07;;;;;;;2.30;1.00;;;;;7.50;93580.00;;;;7396299;19;20630;-76
2022/11/28 04:33:41;;;;;;;2.27;1.03;;;;;7.40;93588.00;;;;7398320;19;20181;-77
2022/11/28 04:36:19;;;;;;;2.30;0.97;;;;;7.20;93583.00;;;;7395935;19;20140;-77
2022/11/28 04:38:54;;;;;;;2.20;1.00;;;;;7.10;93583.00;;;;7396101;19;20506;-77
2022/11/28 04:41:39;;;;;;;9.40;1.30;;;;;7.20;93572.00;;;;7396409;19;20183;-77
2022/11/28 04:44:24;;;;;;;2.87;1.20;;;;;7.00;93582.00;;;;7394545;19;20558;-76
2022/11/28 04:46:58;;;;;;;2.10;1.10;;;;;6.90;93583.00;;;;7395921;19;20174;-78
2022/11/28 04:49:27;;;;;;;3.17;1.10;;;;;6.70;93594.00;;;;7396452;19;20554;-77
2022/11/28 04:52:06;;;;;;;2.57;1.60;;;;;6.40;93605.00;;;;7393407;19;20511;-77
2022/11/28 04:55:06;;;;;;;2.63;1.13;;;;;6.30;93602.00;;;;7397133;19;20116;-77
2022/11/28 04:57:41;;;;;;;2.20;1.00;;;;;6.20;93609.00;;;;7394057;19;20137;-78
2022/11/28 05:00:23;;;;;;;1.20;1.00;;;;;6.10;93588.00;;;;7394904;19;20163;-77
2022/11/28 05:02:53;;;;;;;2.83;1.33;;;;;6.00;93591.00;;;;7395356;19;20607;-77
2022/11/28 05:05:29;;;;;;;1.23;0.90;;;;;5.80;93601.00;;;;7396109;19;20157;-77
2022/11/28 05:07:58;;;;;;;1.33;0.93;;;;;5.70;93594.00;;;;7396288;19;20237;-78
2022/11/28 05:10:25;;;;;;;0.90;0.80;;;;;5.80;93584.00;;;;7397241;19;20596;-77
2022/11/28 05:12:59;;;;;;;1.03;0.80;;;;;5.70;93594.00;;;;7395824;19;20164;-77
2022/11/28 05:15:33;;;;;;;2.87;1.27;;;;;5.50;93590.00;;;;7395051;19;20670;-77
2022/11/28 05:18:08;;;;;;;1.17;0.93;;;;;5.50;93597.00;;;;7396000;19;20162;-77
2022/11/28 05:20:50;;;;;;;2.10;1.03;;;;;5.30;93592.00;;;;7392393;19;20582;-78
2022/11/28 05:23:24;;;;;;;1.87;1.67;;;;;5.10;93593.00;;;;7393957;19;20160;-78
2022/11/28 05:25:51;;;;;;;2.43;1.10;;;;;4.90;93605.00;;;;7396812;19;20180;-77
2022/11/28 05:28:19;;;;;;;2.40;1.20;;;;;4.80;93604.00;;;;7401686;19;20152;-78
2022/11/28 05:31:02;;;;;;;4.33;1.20;;;;;4.90;93611.00;;;;7393768;19;20481;-76
2022/11/28 05:33:31;;;;;;;1.27;1.03;;;;;4.80;93605.00;;;;7402723;19;20156;-77
2022/11/28 05:36:10;;;;;;;1.10;1.00;;;;;4.70;93605.00;;;;7400426;19;20173;-76
2022/11/28 05:38:40;;;;;;;2.07;1.20;;;;;5.00;93607.00;;;;7403479;19;20603;-78
2022/11/28 05:41:28;;;;;;;1.60;1.00;;;;;4.70;93600.00;;;;7402597;19;20144;-78
2022/11/28 05:43:57;;;;;;;1.47;1.10;;;;;4.60;93602.00;;;;7397714;19;20587;-78
2022/11/28 05:46:34;;;;;;;1.30;1.00;;;;;4.60;93607.00;;;;7400480;19;20173;-77
2022/11/28 05:49:02;;;;;;;3.73;1.17;;;;;4.50;93605.00;;;;7403309;19;20137;-76
2022/11/28 05:51:31;;;;;;;1.43;1.07;;;;;4.40;93606.00;;;;7400475;19;20163;-78
2022/11/28 05:54:06;;;;;;;2.63;1.10;;;;;4.40;93601.00;;;;7401612;19;20664;-77
2022/11/28 05:56:34;;;;;;;1.50;1.20;;;;;4.50;93598.00;;;;7397650;19;20173;-77
2022/11/28 05:59:08;;;;;;;1.77;1.10;;;;;4.60;93586.00;;;;7403499;19;20132;-77
2022/11/28 06:01:42;;;;;;;3.50;1.37;;;;;4.70;93599.00;;;;7399438;19;20471;-76
2022/11/28 06:04:10;;;;;;;1.57;1.00;;;;;4.50;93598.00;;;;7399817;19;20160;-78
2022/11/28 06:06:37;;;;;;;1.40;1.10;;;;;4.50;93588.00;;;;7401902;19;20129;-77
2022/11/28 06:09:13;;;;;;;2.10;1.20;;;;;5.00;93581.00;;;;7400567;19;20160;-76
2022/11/28 06:11:41;;;;;;;1.63;1.40;;;;;4.80;93594.00;;;;7399887;19;20576;-77
2022/11/28 06:14:16;;;;;;;2.00;1.33;;;;;4.60;93588.00;;;;7401294;19;20622;-77
2022/11/28 06:16:53;;;;;;;3.57;1.20;;;;;4.60;93592.00;;;;7401892;19;20163;-77
2022/11/28 06:19:36;;;;;;;1.70;1.17;;;;;4.50;93585.00;;;;7399087;19;20469;-77
2022/11/28 06:22:13;;;;;;;1.37;1.23;;;;;4.40;93585.00;;;;7401535;19;20584;-77
2022/11/28 06:24:41;;;;;;;3.30;1.30;;;;;4.20;93576.00;;;;7397330;19;20160;-77
2022/11/28 06:27:08;;;;;;;1.93;1.40;;;;;4.30;93581.00;;;;7400365;19;20161;-77
2022/11/28 06:29:43;;;;;;;1.43;1.20;;;;;4.30;93581.00;;;;7400762;19;20162;-77
2022/11/28 06:32:11;;;;;;;2.60;1.30;;;;;4.30;93587.00;;;;7398462;19;20619;-78
2022/11/28 06:34:38;;;;;;;1.67;1.10;;;;;4.30;93576.00;;;;7400031;19;20172;-77
2022/11/28 06:37:13;;;;;;;1.80;1.20;;;;;4.40;93587.00;;;;7399955;19;20645;-77
2022/11/28 06:39:42;;;;;;;2.73;1.47;;;;;4.80;93589.00;;;;7399934;19;20260;-76
2022/11/28 06:42:10;;;;;;;2.73;1.10;;;;;5.00;93594.00;;;;7398798;19;20168;-77
2022/11/28 06:44:48;;;;;;;3.30;1.30;;;;;5.00;93595.00;;;;7399787;19;20651;-77
2022/11/28 06:47:15;;;;;;;2.33;1.17;;;;;5.00;93602.00;;;;7398228;19;20122;-77
2022/11/28 06:49:43;;;;;;;2.30;1.40;;;;;5.00;93602.00;;;;7398892;19;20169;-77
2022/11/28 06:52:16;;;;;;;1.40;1.30;;;;;5.00;93610.00;;;;7395701;19;20152;-77
2022/11/28 06:54:44;;;;;;;1.90;1.40;;;;;5.20;93606.00;;;;7397256;19;20174;-78
2022/11/28 06:57:12;;;;;;;2.63;1.60;;;;;5.30;93606.00;;;;7398190;19;20476;-77
2022/11/28 06:59:47;;;;;;;1.50;1.20;;;;;5.20;93613.00;;;;7399151;19;20144;-77
2022/11/28 07:02:14;;;;;;;1.67;1.57;;;;;5.20;93608.00;;;;7399791;19;20596;-77
2022/11/28 07:04:44;;;;;;;2.93;1.50;;;;;5.50;93609.00;;;;7398857;19;20468;-77
2022/11/28 07:07:17;;;;;;;4.07;1.50;;;;;5.40;93613.00;;;;7398917;19;20132;-78
2022/11/28 07:09:45;;;;;;;3.53;1.40;;;;;5.30;93616.00;;;;7398751;19;20640;-78
2022/11/28 07:12:13;;;;;;;2.83;1.70;;;;;5.20;93625.00;;;;7395951;19;20137;-77
2022/11/28 07:14:48;;;;;;;1.70;1.43;;;;;5.20;93617.00;;;;7396767;19;20179;-78
2022/11/28 07:17:18;;;;;;;2.87;1.67;;;;;5.30;93608.00;;;;7397901;19;20171;-77
2022/11/28 07:19:45;;;;;;;3.47;1.47;;;;;5.30;93617.00;;;;7395999;19;20144;-78
2022/11/28 07:22:28;;;;;;;1.90;1.50;;;;;5.20;93614.00;;;;7398264;19;20564;-76
2022/11/28 07:24:55;;;;;;;1.63;1.37;;;;;5.30;93609.00;;;;7396688;19;20200;-77
2022/11/28 07:27:30;;;;;;;3.30;1.53;;;;;5.30;93607.00;;;;7397768;19;20152;-77
2022/11/28 07:29:57;;;;;;;4.20;1.50;;;;;5.30;93624.00;;;;7397211;19;20145;-76
2022/11/28 07:32:25;;;;;;;5.13;1.57;;;;;5.20;93619.00;;;;7397625;19;20216;-76
2022/11/28 07:34:59;;;;;;;2.30;1.70;;;;;5.10;93622.00;;;;7396355;19;20206;-76
2022/11/28 07:37:27;;;;;;;2.57;1.40;;;;;5.30;93615.00;;;;7398536;19;20455;-76
2022/11/28 07:39:56;;;;;;;2.63;1.50;;;;;5.60;93625.00;;;;7396596;19;20135;-76
2022/11/28 07:42:29;;;;;;;3.17;1.50;;;;;5.60;93622.00;;;;7396119;19;20619;-76
2022/11/28 07:44:57;;;;;;;1.43;1.30;;;;;5.70;93617.00;;;;7396113;19;20153;-77
2022/11/28 07:47:29;;;;;;;3.60;1.67;;;;;5.70;93626.00;;;;7397288;19;20164;-76
2022/11/28 07:50:04;;;;;;;2.43;1.30;;;;;5.60;93626.00;;;;7395915;19;20489;-76
2022/11/28 07:52:33;;;;;;;6.37;2.30;;;;;5.60;93620.00;;;;7393166;19;20153;-77
2022/11/28 07:55:01;;;;;;;2.93;1.30;;;;;5.60;93627.00;;;;7397913;19;20176;-76
2022/11/28 07:57:35;;;;;;;1.40;1.30;;;;;5.60;93622.00;;;;7397202;19;20522;-76
2022/11/28 08:00:03;;;;;;;5.07;1.40;;;;;5.60;93627.00;;;;7397420;19;20148;-75
2022/11/28 08:02:31;;;;;;;4.23;1.60;;;;;5.70;93623.00;;;;7395623;19;20186;-75
2022/11/28 08:05:06;;;;;;;3.50;1.60;;;;;5.80;93626.00;;;;7396303;19;20179;-75
2022/11/28 08:07:33;;;;;;;2.37;1.60;;;;;6.30;93628.00;;;;7397159;19;20140;-75
2022/11/28 08:10:01;;;;;;;2.83;1.60;;;;;6.40;93630.00;;;;7397093;19;20218;-75
2022/11/28 08:12:35;;;;;;;2.40;1.47;;;;;6.50;93626.00;;;;7395778;19;20224;-77
2022/11/28 08:15:02;;;;;;;1.73;1.47;;;;;6.60;93623.00;;;;7394469;19;20168;-76
2022/11/28 08:17:30;;;;;;;3.77;1.90;;;;;6.60;93635.00;;;;7396149;19;20133;-76
2022/11/28 08:20:11;;;;;;;3.00;1.60;;;;;6.80;93633.00;;;;7394673;19;20184;-76
2022/11/28 08:22:45;;;;;;;3.03;1.70;;;;;6.90;93631.00;;;;7395583;19;20136;-76
2022/11/28 08:25:20;;;;;;;3.13;1.80;;;;;6.80;93625.00;;;;7395498;19;20142;-75
2022/11/28 08:27:47;;;;;;;2.77;1.70;;;;;6.90;93627.00;;;;7397817;19;20849;-76
2022/11/28 08:30:19;;;;;;;2.33;1.83;;;;;6.80;93631.00;;;;7394822;19;20166;-75
2022/11/28 08:32:54;;;;;;;3.03;2.00;;;;;6.80;93629.00;;;;7394596;19;20160;-75
2022/11/28 08:35:24;;;;;;;2.30;1.60;;;;;7.00;93634.00;;;;7398327;19;20671;-75
2022/11/28 08:37:51;;;;;;;2.60;1.50;;;;;6.90;93636.00;;;;7394952;19;20507;-75
2022/11/28 08:40:28;;;;;;;2.13;1.40;;;;;7.00;93641.00;;;;7395421;19;20468;-75
2022/11/28 08:42:58;;;;;;;3.63;1.73;;;;;7.00;93636.00;;;;7392785;19;20157;-75
2022/11/28 08:45:35;;;;;;;2.10;1.50;;;;;6.90;93627.00;;;;7395297;19;20137;-76
2022/11/28 08:48:03;;;;;;;3.37;1.70;;;;;7.00;93625.00;;;;7393711;19;20141;-75
2022/11/28 08:50:35;;;;;;;2.37;1.50;;;;;7.10;93627.00;;;;7392392;19;20189;-75
2022/11/28 08:53:16;;;;;;;4.33;1.70;;;;;7.00;93631.00;;;;7389922;19;20133;-75
2022/11/28 08:55:44;;;;;;;2.30;1.60;;;;;7.10;93627.00;;;;7395842;19;20141;-75
2022/11/28 08:58:18;;;;;;;1.73;1.40;;;;;7.20;93626.00;;;;7392266;19;20467;-75
2022/11/28 09:00:54;;;;;;;2.50;1.60;;;;;7.20;93628.00;;;;7394193;19;20152;-75
2022/11/28 09:03:30;;;;;;;2.87;2.13;;;;;7.10;93625.00;;;;7401945;19;20152;-75
2022/11/28 09:06:01;;;;;;;1.90;1.43;;;;;7.10;93636.00;;;;7399878;19;20156;-76
2022/11/28 09:08:28;;;;;;;2.73;1.70;;;;;7.10;93642.00;;;;7403281;19;20572;-76
2022/11/28 09:11:04;;;;;;;3.70;1.90;;;;;7.10;93645.00;;;;7400711;19;20149;-75
2022/11/28 09:13:32;;;;;;;2.33;1.67;;;;;7.10;93639.00;;;;7399954;19;20180;-75
2022/11/28 09:15:59;;;;;;;4.03;2.07;;;;;7.30;93647.00;;;;7401519;19;20156;-75
2022/11/28 09:18:33;;;;;;;4.30;1.90;;;;;7.30;93647.00;;;;7401581;19;20487;-75
2022/11/28 09:21:11;;;;;;;2.97;1.53;;;;;7.40;93641.00;;;;7397837;19;20180;-74
2022/11/28 09:23:54;;;;;;;6.67;1.63;;;;;7.60;93642.00;;;;7401439;19;20125;-75
2022/11/28 09:26:24;;;;;;;1.87;1.60;;;;;7.60;93646.00;;;;7398752;19;20148;-74
2022/11/28 09:29:06;;;;;;;2.80;1.60;;;;;7.50;93655.00;;;;7402513;19;20144;-75
2022/11/28 09:31:34;;;;;;;2.90;1.60;;;;;7.50;93658.00;;;;7400290;19;20608;-75
2022/11/28 09:34:02;;;;;;;3.20;1.60;;;;;7.60;93651.00;;;;7401903;19;20133;-74
2022/11/28 09:36:36;;;;;;;3.13;1.70;;;;;7.60;93654.00;;;;7401288;19;20160;-74
2022/11/28 09:39:04;;;;;;;1.93;1.50;;;;;7.70;93660.00;;;;7400756;19;20173;-75
2022/11/28 09:41:47;;;;;;;2.53;1.53;;;;;7.80;93648.00;;;;7399876;19;20160;-75
2022/11/28 09:44:25;;;;;;;3.00;1.90;;;;;7.70;93654.00;;;;7397684;19;20149;-77
2022/11/28 09:46:56;;;;;;;2.27;1.67;;;;;7.80;93653.00;;;;7398390;19;20149;-75
2022/11/28 09:49:39;;;;;;;2.53;1.37;;;;;7.80;93646.00;;;;7402120;19;20133;-75
2022/11/28 09:52:37;;;;;;;3.87;1.50;;;;;8.10;93652.00;;;;7397064;19;20152;-75
2022/11/28 09:55:19;;;;;;;1.40;1.20;;;;;7.90;93648.00;;;;7399802;19;20176;-74
2022/11/28 09:57:49;;;;;;;2.77;1.83;;;;;8.10;93654.00;;;;7401893;19;20128;-75
2022/11/28 10:00:40;;;;;;;4.95;1.60;;;;;8.10;93647.00;;;;7399096;19;20156;-75
2022/11/28 10:03:35;;;;;;;2.13;1.63;;;;;8.00;93646.00;;;;7400118;19;20150;-74
2022/11/28 10:06:43;;;;;;;6.63;1.63;;;;;8.20;93646.00;;;;7397912;19;20156;-75
2022/11/28 10:09:48;;;;;;;2.77;1.50;;;;;8.30;93647.00;;;;7400064;19;20129;-75
2022/11/28 10:13:01;;;;;;;3.03;1.90;;;;;8.40;93648.00;;;;7397326;19;20160;-75
2022/11/28 10:15:38;;;;;;;2.67;1.60;;;;;8.20;93646.00;;;;7396269;19;20157;-75
2022/11/28 10:18:38;;;;;;;1.60;1.50;;;;;8.30;93643.00;;;;7398534;19;20152;-74
2022/11/28 10:21:41;;;;;;;1.70;1.50;;;;;8.50;93642.00;;;;7397441;19;20647;-75
2022/11/28 10:24:43;;;;;;;4.33;2.07;;;;;8.50;93639.00;;;;7400065;19;20189;-74
2022/11/28 10:27:14;;;;;;;3.25;1.80;;;;;8.40;93640.00;;;;7397287;19;20164;-75
2022/11/28 10:30:01;;;;;;;4.60;1.55;;;;;8.50;93641.00;;;;7399472;19;20615;-74
2022/11/28 10:32:36;;;;;;;4.20;1.73;;;;;8.60;93638.00;;;;7398119;19;20156;-73
2022/11/28 10:35:41;;;;;;;3.75;2.47;;;;;8.70;93630.00;;;;7400861;19;20188;-76
2022/11/28 10:38:13;;;;;;;2.78;1.90;;;;;8.60;93634.00;;;;7398263;19;20560;-74
2022/11/28 10:41:03;;;;;;;2.50;1.50;;;;;8.70;93634.00;;;;7398571;19;20148;-74
2022/11/28 10:43:43;;;;;;;2.60;1.70;;;;;8.70;93620.00;;;;7398055;19;20164;-74
2022/11/28 10:46:46;;;;;;;3.38;2.00;;;;;8.60;93628.00;;;;7399198;19;20484;-75
2022/11/28 10:49:33;;;;;;;2.20;1.70;;;;;8.70;93619.00;;;;7398778;19;20147;-74
2022/11/28 10:52:25;;;;;;;7.55;1.80;;;;;8.70;93631.00;;;;7392970;19;20157;-74
2022/11/28 10:55:01;;;;;;;3.63;2.10;;;;;8.70;93616.00;;;;7399179;19;20215;-75
2022/11/28 10:57:51;;;;;;;3.95;1.98;;;;;8.60;93620.00;;;;7398102;19;20626;-78
2022/11/28 11:00:19;;;;;;;4.75;1.92;;;;;8.60;93621.00;;;;7396775;19;20163;-76
2022/11/28 11:02:55;;;;;;;3.28;1.80;;;;;8.60;93623.00;;;;7398021;19;20695;-76
2022/11/28 11:05:27;;;;;;;2.42;1.80;;;;;8.40;93623.00;;;;7399460;19;21244;-75
2022/11/28 11:08:18;;;;;;;4.03;2.05;;;;;8.40;93627.00;;;;7396112;19;20149;-76
2022/11/28 11:11:04;;;;;;;4.35;1.73;;;;;8.30;93627.00;;;;7398981;19;20151;-75
2022/11/28 11:14:02;;;;;;;4.55;2.08;;;;;8.30;93624.00;;;;7396672;19;20181;-75
2022/11/28 11:16:52;;;;;;;3.67;2.50;;;;;8.20;93625.00;;;;7398743;19;20157;-75
2022/11/28 11:19:43;;;;;;;3.30;2.53;;;;;8.20;93615.00;;;;7398951;19;20135;-76
2022/11/28 11:22:19;;;;;;;3.53;2.70;;;;;8.30;93615.00;;;;7394349;19;20587;-76
2022/11/28 11:25:11;;;;;;;4.65;2.83;;;;;8.40;93621.00;;;;7397639;19;20583;-75
2022/11/28 11:27:59;;;;;;;4.30;2.60;;;;;8.40;93618.00;;;;7395707;19;20152;-75
2022/11/28 11:30:41;;;;;;;5.00;2.92;;;;;8.40;93616.00;;;;7396154;19;20137;-76
2022/11/28 11:33:15;;;;;;;6.53;2.45;;;;;8.30;93613.00;;;;7396305;19;20606;-75
2022/11/28 11:35:49;;;;;;;3.33;2.63;;;;;8.30;93612.00;;;;7398904;19;20157;-76
2022/11/28 11:38:19;;;;;;;5.43;2.70;;;;;8.30;93618.00;;;;7395886;19;20160;-75
2022/11/28 11:40:49;;;;;;;6.72;2.40;;;;;8.30;93612.00;;;;7393800;19;20615;-76
2022/11/28 11:43:29;;;;;;;3.83;2.28;;;;;8.20;93616.00;;;;7395751;19;20144;-75
2022/11/28 11:46:07;;;;;;;2.70;1.95;;;;;8.30;93612.00;;;;7396669;19;20216;-75
2022/11/28 11:48:46;;;;;;;2.95;1.70;;;;;8.20;93611.00;;;;7396682;19;20164;-76
2022/11/28 11:51:24;;;;;;;3.90;2.07;;;;;8.20;93601.00;;;;7394091;19;20187;-76
2022/11/28 11:54:16;;;;;;;5.40;2.40;;;;;8.10;93604.00;;;;7396016;19;20538;-76
2022/11/28 11:56:46;;;;;;;4.53;2.00;;;;;8.10;93597.00;;;;7396466;19;20527;-76
2022/11/28 11:59:51;;;;;;;6.07;2.43;;;;;8.10;93602.00;;;;7396630;19;20679;-75
2022/11/28 12:02:49;;;;;;;5.90;2.07;;;;;8.00;93598.00;;;;7395763;19;20129;-75
2022/11/28 12:05:30;;;;;;;8.07;2.20;;;;;8.20;93604.00;;;;7390061;19;20156;-76
2022/11/28 12:08:32;;;;;;;6.05;2.40;;;;;8.30;93599.00;;;;7394964;19;20156;-75
2022/11/28 12:11:39;;;;;;;2.90;1.88;;;;;8.20;93600.00;;;;7394082;19;20153;-75
2022/11/28 12:14:34;;;;;;;4.32;1.85;;;;;8.10;93601.00;;;;7396069;19;20216;-75
2022/11/28 12:17:20;;;;;;;3.55;2.05;;;;;8.10;93594.00;;;;7395558;19;20166;-75
2022/11/28 12:20:41;;;;;;;6.20;2.33;;;;;8.00;93594.00;;;;7395399;19;20615;-75
2022/11/28 12:23:44;;;;;;;2.73;1.93;;;;;8.20;93599.00;;;;7394511;19;20128;-75
2022/11/28 12:26:52;;;;;;;3.67;2.30;;;;;8.00;93577.00;;;;7394284;19;20129;-75
2022/11/28 12:29:41;;;;;;;4.63;1.93;;;;;8.10;93575.00;;;;7396951;19;20591;-75
2022/11/28 12:32:34;;;;;;;4.63;2.57;;;;;8.00;93572.00;;;;7395991;19;20137;-75
2022/11/28 12:35:28;;;;;;;2.87;2.10;;;;;8.20;93572.00;;;;7399460;19;20129;-74
2022/11/28 12:38:09;;;;;;;2.43;2.03;;;;;8.20;93567.00;;;;7402669;19;20150;-74
2022/11/28 12:41:30;;;;;;;2.57;2.00;;;;;8.20;93565.00;;;;7401938;19;20519;-74
2022/11/28 12:44:20;;;;;;;3.40;2.08;;;;;8.30;93560.00;;;;7400824;19;20180;-74
2022/11/28 12:47:10;;;;;;;3.20;2.10;;;;;8.20;93567.00;;;;7400330;19;20160;-75
2022/11/28 12:50:05;;;;;;;5.00;2.10;;;;;8.20;93556.00;;;;7401953;19;20154;-74
2022/11/28 12:53:04;;;;;;;3.80;2.13;;;;;8.20;93554.00;;;;7399672;19;20128;-74
2022/11/28 12:56:09;;;;;;;5.97;2.43;;;;;8.00;93549.00;;;;7402043;19;20121;-74
2022/11/28 12:58:58;;;;;;;5.17;2.20;;;;;8.00;93552.00;;;;7401967;19;20148;-75
2022/11/28 13:02:04;;;;;;;4.67;2.30;;;;;8.10;93555.00;;;;7401000;19;20156;-75
2022/11/28 13:05:02;;;;;;;2.93;2.07;;;;;8.10;93555.00;;;;7399329;19;20200;-75
2022/11/28 13:07:58;;;;;;;3.47;2.00;;;;;7.90;93549.00;;;;7394854;19;20148;-75
2022/11/28 13:10:55;;;;;;;4.47;2.17;;;;;7.80;93552.00;;;;7400557;19;20156;-75
2022/11/28 13:13:40;;;;;;;3.50;2.10;;;;;7.90;93536.00;;;;7400851;19;20631;-75
2022/11/28 13:16:31;;;;;;;4.07;2.13;;;;;7.80;93544.00;;;;7401304;19;20532;-75
2022/11/28 13:19:11;;;;;;;5.10;2.57;;;;;7.80;93542.00;;;;7403227;19;20504;-73
2022/11/28 13:22:14;;;;;;;4.33;2.43;;;;;7.80;93550.00;;;;7399107;19;20619;-74
2022/11/28 13:25:17;;;;;;;3.40;2.50;;;;;7.70;93549.00;;;;7401834;19;20576;-74
2022/11/28 13:28:16;;;;;;;3.63;2.43;;;;;7.50;93561.00;;;;7400044;19;20145;-74
2022/11/28 13:30:50;;;;;;;3.43;2.67;;;;;7.60;93554.00;;;;7401588;19;20141;-76